createdAt,value
2022-10-21T00:00:56.676Z,7.75
2022-10-21T00:03:35.177Z,7.95
2022-10-21T00:06:03.290Z,9.75
2022-10-21T00:08:30.247Z,7.25
2022-10-21T00:11:00.419Z,8.70
2022-10-21T00:13:29.130Z,8.07
2022-10-21T00:16:13.123Z,5.75
2022-10-21T00:18:41.962Z,11.00
2022-10-21T00:21:14.533Z,6.70
2022-10-21T00:23:42.520Z,10.50
2022-10-21T00:26:10.419Z,7.85
2022-10-21T00:28:37.412Z,6.68
2022-10-21T00:31:11.327Z,8.52
2022-10-21T00:33:38.838Z,10.38
2022-10-21T00:36:07.783Z,10.80
2022-10-21T00:38:35.885Z,10.75
2022-10-21T00:41:03.640Z,6.43
2022-10-21T00:43:31.628Z,9.38
2022-10-21T00:46:05.166Z,7.95
2022-10-21T00:48:42.551Z,11.70
2022-10-21T00:51:14.152Z,8.48
2022-10-21T00:53:46.929Z,8.70
2022-10-21T00:56:20.366Z,12.43
2022-10-21T00:58:48.826Z,8.38
2022-10-21T01:01:19.160Z,7.53
2022-10-21T01:03:49.921Z,9.55
2022-10-21T01:06:20.765Z,7.85
2022-10-21T01:08:47.865Z,13.25
2022-10-21T01:11:19.065Z,9.07
2022-10-21T01:14:13.496Z,7.75
2022-10-21T01:16:49.388Z,8.27
2022-10-21T01:22:02.239Z,9.77
2022-10-21T01:24:41.409Z,7.07
2022-10-21T01:27:48.906Z,8.82
2022-10-21T01:30:36.533Z,7.57
2022-10-21T01:33:45.435Z,10.65
2022-10-21T01:36:12.288Z,7.63
2022-10-21T01:38:42.206Z,11.27
2022-10-21T01:41:30.314Z,7.30
2022-10-21T01:44:27.517Z,9.82
2022-10-21T01:47:16.261Z,12.55
2022-10-21T01:49:53.821Z,8.40
2022-10-21T01:52:21.292Z,8.43
2022-10-21T01:54:54.994Z,6.97
2022-10-21T01:57:27.263Z,13.23
2022-10-21T01:59:58.376Z,7.55
2022-10-21T02:02:29.878Z,7.30
2022-10-21T02:05:02.328Z,8.23
2022-10-21T02:07:29.293Z,8.48
2022-10-21T02:09:59.225Z,8.20
2022-10-21T02:12:32.094Z,9.55
2022-10-21T02:15:01.170Z,9.77
2022-10-21T02:17:29.584Z,7.97
2022-10-21T02:20:01.052Z,7.95
2022-10-21T02:22:28.996Z,9.88
2022-10-21T02:25:04.817Z,7.80
2022-10-21T02:27:31.924Z,8.82
2022-10-21T02:30:03.857Z,7.70
2022-10-21T02:32:54.502Z,7.03
2022-10-21T02:35:30.521Z,8.55
2022-10-21T02:40:34.678Z,10.75
2022-10-21T02:43:09.415Z,9.57
2022-10-21T02:45:36.810Z,10.87
2022-10-21T02:48:04.199Z,11.35
2022-10-21T02:50:32.032Z,8.05
2022-10-21T02:53:01.494Z,9.15
2022-10-21T02:55:29.274Z,9.38
2022-10-21T02:57:56.132Z,9.05
2022-10-21T03:00:23.322Z,9.20
2022-10-21T03:02:50.155Z,9.65
2022-10-21T03:05:17.376Z,10.23
2022-10-21T03:07:46.741Z,9.20
2022-10-21T03:10:13.898Z,8.65
2022-10-21T03:12:42.964Z,7.53
2022-10-21T03:15:10.543Z,12.77
2022-10-21T03:17:37.846Z,9.07
2022-10-21T03:20:05.480Z,10.30
2022-10-21T03:22:33.741Z,9.55
2022-10-21T03:25:00.790Z,10.50
2022-10-21T03:27:27.717Z,12.82
2022-10-21T03:29:55.095Z,8.65
2022-10-21T03:32:21.954Z,9.20
2022-10-21T03:34:48.987Z,11.30
2022-10-21T03:37:15.962Z,8.43
2022-10-21T03:39:43.099Z,7.65
2022-10-21T03:42:09.989Z,7.43
2022-10-21T03:44:37.124Z,8.98
2022-10-21T03:47:04.149Z,9.48
2022-10-21T03:49:31.245Z,11.23
2022-10-21T03:52:00.438Z,10.07
2022-10-21T03:54:27.589Z,7.72
2022-10-21T03:56:54.544Z,11.52
2022-10-21T03:59:24.103Z,10.82
2022-10-21T04:01:51.210Z,6.97
2022-10-21T04:04:18.501Z,7.03
2022-10-21T04:06:46.220Z,13.32
2022-10-21T04:09:13.429Z,8.10
2022-10-21T04:11:40.331Z,9.45
2022-10-21T04:14:11.452Z,9.48
2022-10-21T04:16:41.586Z,9.85
2022-10-21T04:19:11.990Z,8.52
2022-10-21T04:21:39.039Z,10.30
2022-10-21T04:24:06.138Z,11.73
2022-10-21T04:26:33.102Z,10.50
2022-10-21T04:29:00.381Z,11.32
2022-10-21T04:31:32.093Z,8.20
2022-10-21T04:33:59.554Z,15.02
2022-10-21T04:36:26.455Z,8.45
2022-10-21T04:38:53.671Z,10.77
2022-10-21T04:41:20.623Z,8.13
2022-10-21T04:43:47.696Z,7.10
2022-10-21T04:46:16.943Z,6.78
2022-10-21T04:48:46.580Z,6.57
2022-10-21T04:51:13.790Z,12.30
2022-10-21T04:53:43.150Z,8.25
2022-10-21T04:56:10.148Z,9.95
2022-10-21T04:58:37.531Z,8.07
2022-10-21T05:01:04.968Z,8.38
2022-10-21T05:03:32.657Z,13.10
2022-10-21T05:05:59.597Z,11.07
2022-10-21T05:08:26.777Z,8.18
2022-10-21T05:10:58.766Z,11.15
2022-10-21T05:13:26.531Z,11.65
2022-10-21T05:15:53.627Z,8.63
2022-10-21T05:18:20.675Z,9.82
2022-10-21T05:20:51.998Z,12.63
2022-10-21T05:23:19.480Z,15.60
2022-10-21T05:25:51.733Z,9.88
2022-10-21T05:28:21.309Z,8.00
2022-10-21T05:30:48.373Z,10.40
2022-10-21T05:33:16.247Z,9.70
2022-10-21T05:35:43.531Z,9.35
2022-10-21T05:38:10.759Z,12.50
2022-10-21T05:40:37.695Z,10.25
2022-10-21T05:43:04.753Z,9.60
2022-10-21T05:45:31.755Z,10.00
2022-10-21T05:47:58.859Z,9.60
2022-10-21T05:50:26.063Z,13.38
2022-10-21T05:52:58.470Z,9.15
2022-10-21T05:55:27.900Z,9.40
2022-10-21T05:57:55.477Z,11.20
2022-10-21T06:00:23.820Z,8.35
2022-10-21T06:02:50.941Z,8.02
2022-10-21T06:05:17.916Z,7.82
2022-10-21T06:07:45.019Z,10.00
2022-10-21T06:10:12.448Z,6.72
2022-10-21T06:12:40.180Z,9.38
2022-10-21T06:15:07.640Z,8.68
2022-10-21T06:17:35.076Z,10.07
2022-10-21T06:20:02.220Z,8.73
2022-10-21T06:22:29.656Z,9.40
2022-10-21T06:24:56.563Z,7.70
2022-10-21T06:27:28.361Z,7.22
2022-10-21T06:29:55.313Z,9.10
2022-10-21T06:32:22.446Z,7.07
2022-10-21T06:34:49.331Z,7.32
2022-10-21T06:37:16.738Z,11.20
2022-10-21T06:39:43.781Z,6.72
2022-10-21T06:42:10.989Z,9.45
2022-10-21T06:44:40.984Z,8.30
2022-10-21T06:47:08.582Z,13.95
2022-10-21T06:49:35.463Z,8.95
2022-10-21T06:52:02.602Z,9.80
2022-10-21T06:54:29.568Z,6.90
2022-10-21T06:56:59.463Z,7.85
2022-10-21T06:59:26.342Z,6.30
2022-10-21T07:02:00.302Z,7.70
2022-10-21T07:04:28.359Z,10.15
2022-10-21T07:06:55.455Z,11.40
2022-10-21T07:09:22.656Z,8.35
2022-10-21T07:11:49.830Z,7.90
2022-10-21T07:14:17.081Z,8.65
2022-10-21T07:16:44.244Z,10.38
2022-10-21T07:19:11.480Z,7.75
2022-10-21T07:21:38.630Z,7.47
2022-10-21T07:24:05.980Z,10.35
2022-10-21T07:26:34.362Z,8.55
2022-10-21T07:29:01.481Z,12.68
2022-10-21T07:31:32.669Z,7.32
2022-10-21T07:34:01.277Z,7.03
2022-10-21T07:36:31.720Z,6.10
2022-10-21T07:39:02.435Z,8.15
2022-10-21T07:41:34.950Z,6.65
2022-10-21T07:44:02.258Z,8.13
2022-10-21T07:46:29.521Z,8.63
2022-10-21T07:48:57.273Z,8.77
2022-10-21T07:51:28.735Z,5.45
2022-10-21T07:53:58.632Z,5.72
2022-10-21T07:56:33.333Z,6.25
2022-10-21T07:59:01.756Z,5.57
2022-10-21T08:01:29.533Z,6.63
2022-10-21T08:03:57.457Z,9.35
2022-10-21T08:06:26.272Z,7.20
2022-10-21T08:08:53.567Z,13.07
2022-10-21T08:11:29.634Z,9.95
2022-10-21T08:14:00.082Z,7.68
2022-10-21T08:16:27.832Z,16.27
2022-10-21T08:18:55.741Z,7.35
2022-10-21T08:21:23.351Z,9.25
2022-10-21T08:23:50.534Z,8.27
2022-10-21T08:26:17.720Z,9.38
2022-10-21T08:28:44.811Z,10.13
2022-10-21T08:31:16.294Z,11.23
2022-10-21T08:33:43.687Z,9.57
2022-10-21T08:36:15.790Z,9.98
2022-10-21T08:38:43.284Z,7.65
2022-10-21T08:41:31.783Z,9.20
2022-10-21T08:44:10.338Z,7.38
2022-10-21T08:46:52.206Z,9.85
2022-10-21T08:49:36.005Z,9.88
2022-10-21T08:52:12.799Z,7.07
2022-10-21T08:54:47.911Z,9.18
2022-10-21T08:57:15.584Z,13.45
2022-10-21T08:59:42.857Z,7.30
2022-10-21T09:02:13.036Z,9.00
2022-10-21T09:04:49.243Z,9.85
2022-10-21T09:07:35.226Z,10.80
2022-10-21T09:10:12.340Z,8.77
2022-10-21T09:12:58.609Z,6.88
2022-10-21T09:18:21.229Z,9.00
2022-10-21T09:20:57.185Z,8.68
2022-10-21T09:23:52.504Z,10.63
2022-10-21T09:26:34.475Z,8.15
2022-10-21T09:29:25.411Z,5.95
2022-10-21T09:31:57.259Z,8.18
2022-10-21T09:34:43.636Z,7.03
2022-10-21T09:37:30.496Z,8.23
2022-10-21T09:40:15.984Z,12.85
2022-10-21T09:42:47.347Z,8.27
2022-10-21T09:45:39.208Z,12.05
2022-10-21T09:48:17.539Z,10.60
2022-10-21T09:50:47.229Z,10.65
2022-10-21T09:53:33.310Z,8.02
2022-10-21T09:56:04.682Z,8.02
2022-10-21T09:58:37.741Z,13.43
2022-10-21T10:01:06.282Z,12.90
2022-10-21T10:03:54.437Z,12.38
2022-10-21T10:06:30.788Z,12.52
2022-10-21T10:09:30.209Z,10.93
2022-10-21T10:12:12.430Z,10.60
2022-10-21T10:14:44.452Z,11.38
2022-10-21T10:17:23.970Z,11.27
2022-10-21T10:20:17.539Z,10.95
2022-10-21T10:23:09.359Z,8.60
2022-10-21T10:25:39.664Z,9.82
2022-10-21T10:28:10.291Z,8.77
2022-10-21T10:30:48.004Z,11.30
2022-10-21T10:33:15.302Z,7.45
2022-10-21T10:35:54.184Z,6.57
2022-10-21T10:38:31.530Z,7.07
2022-10-21T10:41:11.847Z,8.45
2022-10-21T10:43:49.922Z,10.32
2022-10-21T10:46:38.006Z,11.23
2022-10-21T10:49:14.291Z,9.68
2022-10-21T10:51:42.674Z,10.02
2022-10-21T10:54:28.223Z,13.02
2022-10-21T10:56:56.698Z,9.38
2022-10-21T10:59:47.547Z,6.68
2022-10-21T11:02:20.617Z,7.30
2022-10-21T11:05:15.170Z,14.70
2022-10-21T11:07:49.972Z,10.18
2022-10-21T11:10:36.111Z,7.30
2022-10-21T11:13:15.474Z,14.52
2022-10-21T11:16:23.363Z,23.88
2022-10-21T11:19:39.516Z,9.77
2022-10-21T11:22:32.483Z,7.57
2022-10-21T11:25:14.863Z,9.82
2022-10-21T11:27:54.212Z,8.05
2022-10-21T11:30:23.844Z,8.05
2022-10-21T11:33:00.774Z,10.93
2022-10-21T11:35:27.652Z,8.82
2022-10-21T11:38:12.938Z,11.55
2022-10-21T11:40:52.329Z,13.68
2022-10-21T11:43:26.659Z,8.30
2022-10-21T11:46:28.100Z,8.10
2022-10-21T11:49:14.216Z,14.13
2022-10-21T11:51:53.503Z,9.77
2022-10-21T11:55:10.362Z,8.93
2022-10-21T11:57:55.467Z,9.52
2022-10-21T12:00:25.557Z,5.55
2022-10-21T12:03:15.852Z,7.25
2022-10-21T12:06:04.650Z,9.55
2022-10-21T12:08:48.305Z,9.90
2022-10-21T12:11:26.454Z,8.15
2022-10-21T12:14:11.899Z,7.78
2022-10-21T12:16:41.806Z,10.63
2022-10-21T12:19:13.400Z,11.77
2022-10-21T12:21:44.965Z,9.70
2022-10-21T12:24:38.433Z,11.88
2022-10-21T12:27:47.420Z,9.30
2022-10-21T12:30:17.643Z,8.75
2022-10-21T12:33:03.118Z,9.55
2022-10-21T12:35:45.471Z,11.63
2022-10-21T12:38:41.582Z,9.20
2022-10-21T12:41:41.454Z,9.20
2022-10-21T12:44:25.321Z,10.82
2022-10-21T12:46:56.298Z,13.35
2022-10-21T12:49:32.530Z,7.22
2022-10-21T12:52:02.549Z,14.70
2022-10-21T12:54:40.965Z,9.27
2022-10-21T12:57:24.320Z,6.85
2022-10-21T12:59:51.498Z,14.13
2022-10-21T13:02:20.346Z,9.52
2022-10-21T13:04:51.348Z,11.98
2022-10-21T13:07:19.521Z,13.90
2022-10-21T13:09:50.822Z,16.38
2022-10-21T13:12:23.954Z,10.73
2022-10-21T13:14:53.748Z,12.63
2022-10-21T13:17:20.625Z,9.50
2022-10-21T13:19:50.946Z,8.98
2022-10-21T13:22:36.040Z,7.90
2022-10-21T13:25:39.250Z,11.65
2022-10-21T13:28:14.846Z,11.52
2022-10-21T13:30:48.036Z,12.95
2022-10-21T13:33:22.318Z,10.55
2022-10-21T13:35:56.206Z,8.93
2022-10-21T13:38:23.208Z,8.32
2022-10-21T13:40:56.593Z,9.57
2022-10-21T13:43:38.646Z,10.60
2022-10-21T13:46:28.832Z,12.10
2022-10-21T13:48:59.673Z,7.60
2022-10-21T13:51:29.625Z,12.35
2022-10-21T13:54:08.802Z,14.73
2022-10-21T13:56:37.732Z,12.48
2022-10-21T13:59:07.280Z,11.90
2022-10-21T14:01:46.773Z,8.73
2022-10-21T14:04:20.898Z,12.23
2022-10-21T14:06:54.241Z,10.63
2022-10-21T14:09:30.702Z,11.48
2022-10-21T14:12:01.693Z,10.77
2022-10-21T14:14:31.666Z,9.40
2022-10-21T14:17:16.115Z,12.38
2022-10-21T14:19:48.642Z,11.57
2022-10-21T14:22:22.818Z,10.00
2022-10-21T14:24:53.817Z,10.82
2022-10-21T14:27:25.829Z,14.38
2022-10-21T14:29:53.449Z,12.13
2022-10-21T14:32:22.611Z,11.50
2022-10-21T14:34:58.665Z,9.43
2022-10-21T14:37:25.932Z,8.82
2022-10-21T14:39:52.903Z,11.55
2022-10-21T14:42:25.086Z,10.00
2022-10-21T14:45:02.747Z,9.80
2022-10-21T14:47:30.094Z,8.57
2022-10-21T14:50:04.168Z,9.23
2022-10-21T14:52:40.254Z,14.43
2022-10-21T14:55:14.984Z,11.63
2022-10-21T14:57:53.141Z,8.52
2022-10-21T15:00:30.589Z,9.68
2022-10-21T15:02:59.216Z,11.60
2022-10-21T15:05:47.885Z,10.77
2022-10-21T15:08:22.840Z,12.13
2022-10-21T15:11:05.030Z,7.22
2022-10-21T15:13:33.280Z,9.10
2022-10-21T15:16:02.324Z,11.57
2022-10-21T15:18:47.478Z,10.55
2022-10-21T15:21:31.861Z,9.98
2022-10-21T15:24:00.092Z,9.02
2022-10-21T15:26:38.033Z,7.68
2022-10-21T15:29:14.509Z,10.32
2022-10-21T15:31:41.968Z,11.32
2022-10-21T15:34:14.378Z,11.68
2022-10-21T15:36:42.874Z,7.95
2022-10-21T15:39:10.547Z,9.45
2022-10-21T15:41:38.936Z,9.52
2022-10-21T15:44:21.054Z,9.55
2022-10-21T15:46:50.637Z,13.32
2022-10-21T15:49:23.629Z,12.60
2022-10-21T15:51:51.439Z,11.00
2022-10-21T15:54:20.447Z,14.68
2022-10-21T15:56:52.300Z,9.82
2022-10-21T15:59:21.021Z,14.40
2022-10-21T16:01:49.909Z,9.60
2022-10-21T16:04:20.064Z,6.88
2022-10-21T16:06:48.985Z,8.10
2022-10-21T16:09:23.548Z,10.48
2022-10-21T16:12:01.433Z,18.38
2022-10-21T16:14:30.796Z,12.13
2022-10-21T16:16:59.954Z,9.48
2022-10-21T16:19:30.629Z,12.85
2022-10-21T16:21:58.353Z,13.02
2022-10-21T16:24:27.513Z,12.40
2022-10-21T16:26:55.011Z,7.95
2022-10-21T16:29:24.835Z,14.02
2022-10-21T16:31:53.438Z,11.95
2022-10-21T16:34:21.085Z,10.07
2022-10-21T16:36:50.982Z,10.32
2022-10-21T16:39:24.771Z,12.32
2022-10-21T16:44:22.706Z,16.65
2022-10-21T16:46:53.293Z,9.45
2022-10-21T16:49:26.393Z,12.70
2022-10-21T16:51:54.833Z,14.80
2022-10-21T16:54:23.507Z,13.60
2022-10-21T16:56:55.024Z,10.15
2022-10-21T16:59:24.578Z,11.10
2022-10-21T17:01:52.499Z,11.05
2022-10-21T17:04:20.526Z,6.63
2022-10-21T17:06:49.495Z,11.18
2022-10-21T17:09:17.658Z,7.78
2022-10-21T17:11:47.464Z,17.38
2022-10-21T17:14:20.201Z,23.27
2022-10-21T17:16:51.040Z,11.02
2022-10-21T17:19:20.994Z,14.15
2022-10-21T17:21:50.073Z,15.15
2022-10-21T17:24:19.522Z,15.30
2022-10-21T17:26:48.013Z,16.73
2022-10-21T17:29:17.376Z,16.85
2022-10-21T17:31:46.113Z,20.92
2022-10-21T17:34:34.347Z,16.92
2022-10-21T17:37:03.241Z,15.30
2022-10-21T17:39:35.927Z,16.80
2022-10-21T17:42:06.210Z,14.27
2022-10-21T17:44:35.959Z,14.13
2022-10-21T17:47:03.787Z,17.10
2022-10-21T17:49:32.734Z,18.02
2022-10-21T17:52:04.510Z,12.75
2022-10-21T17:54:36.119Z,22.65
2022-10-21T17:57:04.430Z,11.38
2022-10-21T17:59:33.600Z,9.73
2022-10-21T18:02:02.550Z,19.08
2022-10-21T18:04:33.684Z,9.55
2022-10-21T18:07:05.864Z,12.70
2022-10-21T18:09:38.527Z,10.35
2022-10-21T18:12:10.236Z,13.05
2022-10-21T18:14:39.564Z,12.13
2022-10-21T18:17:10.121Z,12.88
2022-10-21T18:19:39.958Z,13.48
2022-10-21T18:22:08.521Z,14.38
2022-10-21T18:24:38.510Z,13.63
2022-10-21T18:27:07.970Z,10.02
2022-10-21T18:29:41.150Z,12.18
2022-10-21T18:32:13.775Z,8.23
2022-10-21T18:34:46.646Z,10.25
2022-10-21T18:37:17.079Z,12.23
2022-10-21T18:39:55.404Z,10.05
2022-10-21T18:42:27.327Z,12.32
2022-10-21T18:45:03.199Z,16.40
2022-10-21T18:47:33.497Z,10.55
2022-10-21T18:50:04.366Z,13.52
2022-10-21T18:52:33.013Z,15.02
2022-10-21T18:57:38.904Z,14.65
2022-10-21T19:00:08.733Z,13.88
2022-10-21T19:02:38.547Z,14.93
2022-10-21T19:05:06.680Z,14.18
2022-10-21T19:07:35.215Z,14.32
2022-10-21T19:10:04.268Z,13.15
2022-10-21T19:12:33.631Z,14.98
2022-10-21T19:15:05.195Z,15.82
2022-10-21T19:17:34.582Z,10.25
2022-10-21T19:20:07.156Z,11.32
2022-10-21T19:22:39.852Z,13.38
2022-10-21T19:25:09.508Z,14.73
2022-10-21T19:27:40.902Z,11.93
2022-10-21T19:30:11.562Z,13.93
2022-10-21T19:32:40.811Z,16.08
2022-10-21T19:35:10.649Z,15.85
2022-10-21T19:37:42.840Z,14.52
2022-10-21T19:40:15.416Z,14.73
2022-10-21T19:42:43.854Z,13.48
2022-10-21T19:45:17.554Z,15.52
2022-10-21T19:47:46.588Z,17.10
2022-10-21T19:50:18.567Z,14.02
2022-10-21T19:52:47.551Z,16.95
2022-10-21T19:55:19.608Z,17.20
2022-10-21T19:57:48.202Z,12.05
2022-10-21T20:00:18.098Z,17.60
2022-10-21T20:02:49.562Z,15.45
2022-10-21T20:05:18.559Z,16.73
2022-10-21T20:07:48.720Z,15.68
2022-10-21T20:10:20.728Z,12.68
2022-10-21T20:12:49.273Z,12.55
2022-10-21T20:15:21.085Z,15.95
2022-10-21T20:17:50.664Z,15.73
2022-10-21T20:20:19.161Z,13.25
2022-10-21T20:22:46.702Z,15.40
2022-10-21T20:25:14.654Z,10.57
2022-10-21T20:27:42.519Z,13.65
2022-10-21T20:30:10.978Z,16.08
2022-10-21T20:32:38.747Z,18.55
2022-10-21T20:35:06.980Z,12.50
2022-10-21T20:37:38.419Z,16.70
2022-10-21T20:40:07.516Z,14.45
2022-10-21T20:42:35.074Z,15.45
2022-10-21T20:45:03.655Z,15.35
2022-10-21T20:47:31.026Z,15.45
2022-10-21T20:49:58.864Z,18.30
2022-10-21T20:52:26.198Z,22.67
2022-10-21T20:54:54.645Z,21.08
2022-10-21T20:57:22.277Z,25.52
2022-10-21T20:59:49.652Z,21.15
2022-10-21T21:02:17.079Z,21.08
2022-10-21T21:04:44.366Z,20.13
2022-10-21T21:07:12.850Z,25.25
2022-10-21T21:12:28.613Z,19.23
2022-10-21T21:14:55.768Z,19.02
2022-10-21T21:17:22.759Z,16.63
2022-10-21T21:19:49.886Z,14.77
2022-10-21T21:22:17.247Z,14.00
2022-10-21T21:24:44.550Z,16.98
2022-10-21T21:27:14.001Z,15.85
2022-10-21T21:29:41.300Z,19.15
2022-10-21T21:32:08.532Z,14.68
2022-10-21T21:34:35.700Z,20.05
2022-10-21T21:37:02.665Z,17.38
2022-10-21T21:39:32.055Z,17.08
2022-10-21T21:41:58.946Z,19.63
2022-10-21T21:44:26.201Z,18.27
2022-10-21T21:46:55.345Z,13.95
2022-10-21T21:49:22.528Z,20.58
2022-10-21T21:51:49.610Z,13.52
2022-10-21T21:54:16.747Z,15.20
2022-10-21T21:56:45.873Z,12.30
2022-10-21T21:59:13.555Z,21.85
2022-10-21T22:01:40.501Z,19.58
2022-10-21T22:04:07.727Z,20.80
2022-10-21T22:06:37.513Z,19.05
2022-10-21T22:09:10.131Z,17.42
2022-10-21T22:11:37.801Z,21.17
2022-10-21T22:14:05.291Z,16.85
2022-10-21T22:16:34.459Z,22.10
2022-10-21T22:19:01.791Z,16.45
2022-10-21T22:21:31.025Z,19.23
2022-10-21T22:24:00.718Z,16.92
2022-10-21T22:26:27.920Z,19.17
2022-10-21T22:28:55.784Z,16.42
2022-10-21T22:31:27.408Z,15.90
2022-10-21T22:34:00.222Z,11.20
2022-10-21T22:36:27.827Z,12.68
2022-10-21T22:38:54.953Z,12.88
2022-10-21T22:41:22.138Z,13.38
2022-10-21T22:43:49.448Z,15.80
2022-10-21T22:46:32.992Z,16.75
2022-10-21T22:49:02.355Z,12.52
2022-10-21T22:51:29.589Z,18.13
2022-10-21T22:53:57.010Z,14.25
2022-10-21T22:56:27.949Z,18.73
2022-10-21T22:58:55.224Z,21.17
2022-10-21T23:01:24.125Z,12.38
2022-10-21T23:03:51.697Z,16.23
2022-10-21T23:06:23.953Z,13.93
2022-10-21T23:08:51.150Z,10.52
2022-10-21T23:11:18.111Z,12.98
2022-10-21T23:14:02.129Z,12.98
2022-10-21T23:16:31.472Z,23.03
2022-10-21T23:19:00.910Z,21.80
2022-10-21T23:21:28.523Z,19.98
2022-10-21T23:23:56.047Z,20.42
2022-10-21T23:26:22.993Z,18.02
2022-10-21T23:28:50.037Z,16.20
2022-10-21T23:31:17.178Z,12.32
2022-10-21T23:33:44.384Z,13.35
2022-10-21T23:36:13.492Z,16.65
2022-10-21T23:38:40.653Z,14.73
2022-10-21T23:41:07.636Z,15.75
2022-10-21T23:43:34.762Z,12.27
2022-10-21T23:46:02.056Z,10.32
2022-10-21T23:48:29.187Z,17.42
2022-10-21T23:50:56.161Z,10.38
2022-10-21T23:53:23.387Z,14.48
2022-10-21T23:55:50.311Z,13.93
2022-10-21T23:58:17.732Z,21.58
